Latest Weather Observations for Gold Coast Seaway

IDQ60901

Issued at 8:41 pm EST Sunday 16 December 2018 (issued every 10 minutes, with the page automatically refreshed every 10 minutes)

About weather observations | Map of Brisbane area stations | Latest observations for Brisbane area | Other Formats
Station Details ID: 040764 Name: GOLD COAST SEAWAY Lat: -27.94 Lon: 153.43 Height: 2.98 m
Data from the previous 72 hours. | See also: Recent months at Gold Coast Seaway
Date/Time
EST
Temp
°C
App
Temp
°C
Dew
Point
°C
Rel
Hum
%
Delta-T
°C
Wind Press
QNH
hPa
Press
MSL
hPa
Rain since
9am
mm
Dir  Spd
km/h
Gust
km/h
Spd
kts
Gust
kts
16/08:30pm 21.3 21.9 21.3 100 0.0 NNE 20 26 11 14 1010.7 1010.7 26.8
16/08:00pm 21.4 20.9 21.4 100 0.0 NNE 26 30 14 16 1010.7 1010.7 25.2
16/07:30pm 21.6 22.3 21.6 100 0.0 NE 20 24 11 13 1010.5 1010.5 24.4
16/07:00pm 21.4 23.7 21.4 100 0.0 NNE 11 15 6 8 1010.5 1010.5 24.0
16/06:30pm 21.4 23.0 21.4 100 0.0 NNE 15 17 8 9 1010.0 1010.0 23.2
16/06:00pm 21.2 20.6 21.2 100 0.0 NNE 26 30 14 16 1009.7 1009.7 22.2
16/05:30pm 21.4 22.6 21.4 100 0.0 NNE 17 22 9 12 1009.3 1009.3 20.0
16/05:00pm 21.6 20.4 21.6 100 0.0 NNE 30 35 16 19 1009.1 1009.1 16.0
16/04:30pm 21.9 23.3 21.9 100 0.0 NNE 17 22 9 12 1009.4 1009.4 9.0
16/04:00pm 21.3 22.8 21.3 100 0.0 NE 15 17 8 9 1009.2 1009.2 8.8
16/03:30pm 21.6 21.9 21.6 100 0.0 NE 22 28 12 15 1009.0 1009.0 8.8
16/03:00pm 21.7 21.3 21.7 100 0.0 NE 26 32 14 17 1008.6 1008.6 8.8
16/02:30pm 21.9 22.8 21.9 100 0.0 NE 20 24 11 13 1009.0 1009.0 8.8
16/02:00pm 21.6 21.9 21.6 100 0.0 NNE 22 32 12 17 1009.7 1009.7 8.0
16/01:30pm 22.1 23.1 22.1 100 0.0 NNE 20 24 11 13 1009.8 1009.8 4.4
16/01:00pm 22.1 21.2 22.1 100 0.0 NE 30 39 16 21 1009.9 1009.9 1.8
16/12:30pm 22.1 23.3 22.1 100 0.0 N 19 22 10 12 1010.4 1010.4 0.4
16/12:00pm 22.7 25.3 22.7 100 0.0 NE 13 20 7 11 1010.6 1010.6 0.2
16/11:30am 23.2 26.5 23.2 100 0.0 NNE 11 13 6 7 1010.9 1010.9 0.2
16/11:00am 22.8 25.1 22.8 100 0.0 NE 15 15 8 8 1011.2 1011.2 0.0
16/10:30am 23.0 25.4 23.0 100 0.0 NE 15 19 8 10 1011.2 1011.2 0.0
16/10:00am 23.3 25.5 23.3 100 0.0 NE 17 19 9 10 1011.8 1011.8 0.0
16/09:30am 23.5 25.8 23.5 100 0.0 ENE 17 19 9 10 1011.5 1011.5 0.0
16/09:00am 22.8 25.1 22.8 100 0.0 ENE 15 19 8 10 1011.6 1011.6 0.6
16/08:30am 22.4 24.5 22.4 100 0.0 ENE 15 17 8 9 1011.5 1011.5 0.6
16/08:00am 22.4 24.5 22.4 100 0.0 NE 15 17 8 9 1011.8 1011.8 0.6
16/07:30am 22.4 24.5 22.4 100 0.0 ENE 15 17 8 9 1011.6 1011.6 0.6
16/07:00am 22.3 24.7 22.3 100 0.0 ENE 13 17 7 9 1011.4 1011.4 0.6
16/06:30am 22.1 24.0 22.1 100 0.0 ENE 15 17 8 9 1010.9 1010.9 0.6
16/06:00am 22.0 23.9 22.0 100 0.0 NE 15 17 8 9 1011.1 1011.1 0.6
16/05:30am 22.0 23.9 22.0 100 0.0 NE 15 19 8 10 1010.6 1010.6 0.6
16/05:00am 22.1 23.1 22.1 100 0.0 NE 20 22 11 12 1010.2 1010.2 0.6
16/04:30am 22.0 22.9 22.0 100 0.0 NNE 20 24 11 13 1010.1 1010.1 0.6
16/04:00am 22.1 23.3 22.1 100 0.0 NE 19 22 10 12 1009.6 1009.6 0.6
16/03:30am 22.0 23.5 22.0 100 0.0 NE 17 19 9 10 1009.6 1009.6 0.6
16/03:00am 21.9 23.0 21.9 100 0.0 NE 19 22 10 12 1009.4 1009.4 0.6
16/02:30am 22.3 24.7 22.3 100 0.0 NNE 13 17 7 9 1009.5 1009.5 0.6
16/02:00am 22.0 23.9 22.0 100 0.0 NE 15 19 8 10 1009.4 1009.4 0.6
16/01:30am 22.5 22.2 22.5 100 0.0 NE 28 33 15 18 1009.3 1009.3 0.2
16/01:00am 22.3 23.6 22.3 100 0.0 NE 19 24 10 13 1009.9 1009.9 0.2
16/12:30am 22.5 22.9 22.5 100 0.0 NE 24 28 13 15 1010.3 1010.3 0.2
16/12:00am 22.7 24.0 22.7 100 0.0 NE 20 26 11 14 1010.5 1010.5 0.2
 
Date/Time
EST
Temp
°C
App
Temp
°C
Dew
Point
°C
Rel
Hum
%
Delta-T
°C
Wind Press
QNH
hPa
Press
MSL
hPa
Rain since
9am
mm
Dir  Spd
km/h
Gust
km/h
Spd
kts
Gust
kts
15/11:30pm 23.0 24.7 23.0 100 0.0 NE 19 24 10 13 1011.0 1011.0 0.2
15/11:00pm 22.9 24.9 22.9 100 0.0 NE 17 20 9 11 1011.1 1011.1 0.2
15/10:30pm 22.9 25.6 22.9 100 0.0 N 13 15 7 8 1011.5 1011.5 0.2
15/10:00pm 23.1 25.2 23.1 100 0.0 NE 17 20 9 11 1011.2 1011.2 0.2
15/09:30pm 22.6 25.2 22.6 100 0.0 N 13 17 7 9 1011.2 1011.2 0.2
15/09:00pm 22.6 25.2 22.6 100 0.0 N 13 17 7 9 1011.0 1011.0 0.2
15/08:30pm 22.6 25.2 22.6 100 0.0 N 13 15 7 8 1010.4 1010.4 0.2
15/08:00pm 22.8 25.5 22.8 100 0.0 N 13 17 7 9 1010.5 1010.5 0.2
15/07:30pm 22.9 25.3 22.9 100 0.0 N 15 22 8 12 1010.0 1010.0 0.2
15/07:00pm 22.8 25.9 22.8 100 0.0 N 11 15 6 8 1009.8 1009.8 0.2
15/06:30pm 22.8 25.0 22.6 99 0.1 N 15 17 8 9 1009.6 1009.6 0.2
15/06:00pm 23.5 24.4 23.3 99 0.1 NNE 24 28 13 15 1009.1 1009.1 0.2
15/05:30pm 23.5 23.6 23.2 98 0.2 NE 28 32 15 17 1008.1 1008.1 0.2
15/05:00pm 24.2 25.8 23.9 98 0.2 NE 22 26 12 14 1008.2 1008.2 0.2
15/04:30pm 23.8 25.2 23.6 99 0.1 NE 22 26 12 14 1008.1 1008.1 0.2
15/04:00pm 23.6 24.5 23.3 98 0.2 NE 24 26 13 14 1007.9 1007.9 0.2
15/03:30pm 24.3 24.5 22.0 87 1.5 NE 24 28 13 15 1008.0 1008.0 0.2
15/03:00pm 25.7 26.0 23.6 88 1.4 NNE 28 33 15 18 1008.1 1008.1 0.2
15/02:30pm 24.4 24.2 22.8 91 1.1 NE 28 30 15 16 1008.0 1008.0 0.2
15/02:00pm 24.9 25.3 21.8 83 2.1 NE 22 26 12 14 1008.4 1008.4 0.2
15/01:30pm 26.2 28.3 23.1 83 2.1 NNE 17 20 9 11 1008.5 1008.5 0.2
15/01:00pm 25.1 26.5 21.8 82 2.2 N 17 20 9 11 1008.8 1008.8 0.2
15/12:30pm 26.9 27.0 21.9 74 3.3 NNE 24 26 13 14 1009.2 1009.2 0.2
15/12:00pm 26.9 27.6 22.3 76 3.1 NNE 22 26 12 14 1009.5 1009.5 0.2
15/11:30am 25.8 27.4 23.3 86 1.7 NE 20 26 11 14 1009.6 1009.6 0.2
15/11:00am 25.4 26.4 22.1 82 2.2 NE 20 26 11 14 1009.9 1009.9 0.2
15/10:30am 25.2 25.5 22.9 87 1.6 NE 26 28 14 15 1009.7 1009.7 0.2
15/10:00am 26.0 27.4 21.9 78 2.7 NNE 17 24 9 13 1009.7 1009.7 0.2
15/09:30am 26.3 28.1 21.9 77 2.9 NNE 15 20 8 11 1009.5 1009.5 0.2
15/09:00am 25.7 27.7 23.0 85 1.8 NNE 17 22 9 12 1009.3 1009.3 0.6
15/08:30am 25.3 27.7 22.2 83 2.1 N 13 17 7 9 1009.5 1009.5 0.6
15/08:00am 26.7 27.6 21.9 75 3.2 NNW 20 30 11 16 1009.3 1009.3 0.6
15/07:30am 25.8 26.6 22.5 82 2.2 NNW 22 33 12 18 1009.2 1009.2 0.6
15/07:00am 24.6 26.1 24.4 99 0.1 N 24 33 13 18 1009.1 1009.1 0.6
15/06:30am 23.6 23.9 23.6 100 0.0 NNW 28 37 15 20 1008.6 1008.6 0.6
15/06:00am 22.8 22.6 22.8 100 0.0 N 28 48 15 26 1008.0 1008.0 0.6
15/05:59am 22.8 22.3 22.8 100 0.0 N 30 48 16 26 1008.0 1008.0 0.6
15/05:30am 22.9 20.7 22.9 100 0.0 N 39 50 21 27 1006.9 1006.9 0.6
15/05:00am 23.0 18.4 23.0 100 0.0 NNE 52 67 28 36 1006.1 1006.1 0.6
15/04:52am 23.0 20.1 23.0 100 0.0 NNE 43 63 23 34 1005.9 1005.9 0.6
15/04:45am 23.3 22.5 23.3 100 0.0 N 33 61 18 33 1006.2 1006.2 0.6
15/04:36am 23.3 22.7 23.3 100 0.0 NNW 32 54 17 29 1006.7 1006.7 0.6
15/04:30am 23.2 20.8 23.2 100 0.0 N 41 61 22 33 1006.7 1006.7 0.6
15/04:22am 22.7 23.2 22.7 100 0.0 N 24 48 13 26 1005.6 1005.6 0.6
15/04:00am 23.1 24.8 23.1 100 0.0 NW 19 30 10 16 1006.7 1006.7 0.6
15/03:30am 23.1 21.8 23.1 100 0.0 NNE 35 44 19 24 1005.9 1005.9 0.6
15/03:00am 22.8 21.9 22.8 100 0.0 NNE 32 39 17 21 1006.1 1006.1 0.6
15/02:30am 23.2 24.0 23.2 100 0.0 N 24 28 13 15 1005.8 1005.8 0.6
15/02:00am 23.4 26.4 23.4 100 0.0 N 13 19 7 10 1006.3 1006.3 0.6
15/01:30am 22.3 22.6 22.3 100 0.0 N 24 28 13 15 1006.7 1006.7 0.6
15/01:00am 23.0 24.5 23.0 100 0.0 N 20 30 11 16 1007.2 1007.2 0.6
15/12:30am 23.1 24.2 23.1 100 0.0 N 22 28 12 15 1007.2 1007.2 0.6
15/12:00am 22.7 24.2 22.7 100 0.0 N 19 22 10 12 1007.2 1007.2 0.6
 
Date/Time
EST
Temp
°C
App
Temp
°C
Dew
Point
°C
Rel
Hum
%
Delta-T
°C
Wind Press
QNH
hPa
Press
MSL
hPa
Rain since
9am
mm
Dir  Spd
km/h
Gust
km/h
Spd
kts
Gust
kts
14/11:30pm 23.0 24.5 23.0 100 0.0 N 20 24 11 13 1007.8 1007.8 0.6
14/11:00pm 23.2 25.0 23.2 100 0.0 N 19 26 10 14 1008.0 1008.0 0.6
14/10:30pm 23.4 25.1 23.4 100 0.0 N 20 30 11 16 1008.1 1008.1 0.6
14/10:00pm 23.4 25.3 23.4 100 0.0 N 19 26 10 14 1007.6 1007.6 0.2
14/09:30pm 23.5 24.5 23.5 100 0.0 N 24 28 13 15 1007.8 1007.8 0.2
14/09:00pm 23.6 26.0 23.6 100 0.0 N 17 22 9 12 1007.4 1007.4 0.2
14/08:30pm 23.9 26.5 23.9 100 0.0 N 17 19 9 10 1007.3 1007.3 0.2
14/08:00pm 24.0 27.4 24.0 100 0.0 N 13 19 7 10 1007.3 1007.3 0.2
14/07:30pm 24.2 27.7 24.2 100 0.0 NNW 13 19 7 10 1007.5 1007.5 0.0
14/07:00pm 24.2 26.6 24.2 100 0.0 N 19 22 10 12 1007.1 1007.1 0.0
14/06:30pm 23.9 27.1 23.7 99 0.1 N 13 17 7 9 1006.1 1006.1 0.0
14/06:00pm 24.0 26.1 23.8 99 0.1 N 19 26 10 14 1005.7 1005.7 0.0
14/05:30pm 24.1 26.1 23.9 99 0.1 N 20 28 11 15 1005.4 1005.4 0.0
14/05:00pm 24.5 24.6 24.0 97 0.3 NNE 30 35 16 19 1005.2 1005.2 0.0
14/04:30pm 24.9 24.3 24.4 97 0.3 NE 35 41 19 22 1004.5 1004.5 0.0
14/04:00pm 24.6 24.6 23.0 91 1.1 NE 28 33 15 18 1003.9 1003.9 0.0
14/03:30pm 25.4 24.8 20.4 74 3.3 NE 24 30 13 16 1003.8 1003.8 0.0
14/03:00pm 27.0 25.7 21.3 71 3.8 NNE 30 33 16 18 1004.2 1004.2 0.0
14/02:30pm 26.7 25.7 21.2 72 3.6 NNE 28 32 15 17 1004.4 1004.4 0.0
14/02:00pm 28.0 26.7 21.3 67 4.5 NNE 30 35 16 19 1004.5 1004.5 0.0
14/01:30pm 28.3 29.0 22.3 70 4.1 NNE 22 28 12 15 1004.9 1004.9 0.0
14/01:00pm 26.9 27.2 21.6 72 3.5 NE 22 26 12 14 1005.0 1005.0 0.0
14/12:30pm 27.1 26.0 20.2 66 4.5 NE 26 28 14 15 1005.0 1005.0 0.0
14/12:00pm 27.5 26.3 20.8 67 4.4 N 28 32 15 17 1004.7 1004.7 0.0
14/11:30am 27.7 26.6 20.3 64 4.9 NNE 26 30 14 16 1004.8 1004.8 0.0
14/11:00am 26.8 25.1 19.7 65 4.6 N 28 33 15 18 1005.2 1005.2 0.0
14/10:30am 25.8 24.6 20.1 71 3.7 N 26 35 14 19 1005.5 1005.5 0.0
14/10:00am 25.8 26.6 20.6 73 3.4 N 17 26 9 14 1005.4 1005.4 0.0
14/09:30am 25.3 26.0 21.2 78 2.7 NNW 19 28 10 15 1006.1 1006.1 0.0
14/09:00am 25.5 26.4 22.6 84 2.0 N 22 33 12 18 1005.9 1005.9 0.0
14/08:30am 25.5 27.1 22.2 82 2.2 N 17 24 9 13 1005.4 1005.4 0.0
14/08:00am 25.4 25.9 21.9 81 2.3 N 22 32 12 17 1005.2 1005.2 0.0
14/07:30am 25.6 26.9 22.3 82 2.2 N 19 26 10 14 1005.4 1005.4 0.0
14/07:00am 25.4 27.2 22.5 84 2.0 NNW 17 32 9 17 1005.9 1005.9 0.0
14/06:30am 24.9 26.9 23.0 89 1.3 NNW 17 24 9 13 1006.1 1006.1 0.0
14/06:00am 24.4 26.3 22.8 91 1.1 N 17 24 9 13 1005.3 1005.3 0.0
14/05:30am 24.2 25.6 22.6 91 1.1 NNW 19 24 10 13 1005.1 1005.1 0.0
14/05:00am 24.1 25.5 22.5 91 1.1 NNW 19 28 10 15 1004.9 1004.9 0.0
14/04:30am 24.2 26.4 22.6 91 1.1 NNW 15 17 8 9 1004.5 1004.5 0.0
14/04:00am 24.3 25.8 23.1 93 0.8 NNW 20 30 11 16 1004.7 1004.7 0.0
14/03:30am 24.4 26.0 23.2 93 0.8 N 20 32 11 17 1004.3 1004.3 0.0
14/03:00am 24.2 25.8 22.8 92 0.9 NNW 19 28 10 15 1004.4 1004.4 0.0
14/02:30am 24.4 26.3 22.7 90 1.1 N 17 30 9 16 1004.5 1004.5 0.0
14/02:00am 23.9 25.5 22.2 90 1.1 N 17 20 9 11 1004.9 1004.9 0.0
14/01:30am 23.8 26.3 22.4 92 0.9 N 13 22 7 12 1004.9 1004.9 0.0
14/01:00am 24.1 24.9 22.4 90 1.1 NNE 22 26 12 14 1004.8 1004.8 0.0
14/12:30am 24.3 26.1 21.8 86 1.7 N 15 20 8 11 1005.5 1005.5 0.0
14/12:00am 24.3 26.7 21.6 85 1.8 N 11 19 6 10 1005.8 1005.8 0.0
 
Date/Time
EST
Temp
°C
App
Temp
°C
Dew
Point
°C
Rel
Hum
%
Delta-T
°C
Wind Press
QNH
hPa
Press
MSL
hPa
Rain since
9am
mm
Dir  Spd
km/h
Gust
km/h
Spd
kts
Gust
kts
13/11:30pm 24.2 25.1 20.9 82 2.2 N 17 28 9 15 1005.8 1005.8 0.0
13/11:00pm 24.3 24.9 21.0 82 2.2 N 19 26 10 14 1006.1 1006.1 0.0
13/10:30pm 24.4 24.9 20.9 81 2.3 N 19 28 10 15 1006.4 1006.4 0.0
13/10:00pm 24.4 24.7 20.5 79 2.5 N 19 26 10 14 1006.9 1006.9 0.0
13/09:30pm 24.3 24.6 20.4 79 2.5 NNW 19 28 10 15 1006.9 1006.9 0.0
13/09:00pm 24.3 23.9 21.0 82 2.2 N 24 32 13 17 1006.7 1006.7 0.0

Latest Capital City Observations: Canberra | Sydney | Melbourne | Brisbane | Adelaide | Perth | Hobart | Darwin

Other Formats:

Comma delimited format used in spreadsheet applications
http://www.bom.gov.au/fwo/IDQ60901/IDQ60901.94580.axf

JavaScript Object Notation format (JSON) in row-major order
http://www.bom.gov.au/fwo/IDQ60901/IDQ60901.94580.json